createdAt,value
2019-01-15T00:01:50.676Z,20.53
2019-01-15T00:04:22.329Z,23.73
2019-01-15T00:06:51.911Z,38.47
2019-01-15T00:09:22.539Z,58.00
2019-01-15T00:11:52.214Z,39.33
2019-01-15T00:14:21.287Z,27.17
2019-01-15T00:16:53.310Z,17.80
2019-01-15T00:19:25.121Z,92.87
2019-01-15T00:21:55.999Z,93.73
2019-01-15T00:24:26.357Z,50.07
2019-01-15T00:26:58.606Z,34.30
2019-01-15T00:29:28.466Z,62.27
2019-01-15T00:31:59.336Z,32.00
2019-01-15T00:34:28.416Z,16.80
2019-01-15T00:36:57.847Z,92.53
2019-01-15T00:39:31.885Z,49.27
2019-01-15T00:42:02.780Z,36.70
2019-01-15T00:44:38.007Z,19.00
2019-01-15T00:47:10.695Z,13.40
2019-01-15T00:49:42.585Z,49.57
2019-01-15T00:52:13.357Z,50.03
2019-01-15T00:54:46.706Z,25.77
2019-01-15T00:57:16.043Z,19.03
2019-01-15T00:59:48.269Z,27.60
2019-01-15T01:02:19.250Z,18.90
2019-01-15T01:04:49.674Z,28.23
2019-01-15T01:07:19.064Z,24.20
2019-01-15T01:09:48.500Z,19.43
2019-01-15T01:12:22.132Z,15.43
2019-01-15T01:14:49.827Z,14.10
2019-01-15T01:17:18.988Z,13.80
2019-01-15T01:19:48.669Z,12.47
2019-01-15T01:22:18.521Z,23.03
2019-01-15T01:24:48.425Z,30.43
2019-01-15T01:27:17.887Z,32.40
2019-01-15T01:29:47.446Z,35.83
2019-01-15T01:32:17.529Z,44.80
2019-01-15T01:34:47.252Z,38.77
2019-01-15T01:37:17.004Z,30.27
2019-01-15T01:39:46.880Z,36.67
2019-01-15T01:42:16.622Z,35.33
2019-01-15T01:44:46.275Z,41.47
2019-01-15T01:47:15.418Z,24.17
2019-01-15T01:49:45.170Z,18.60
2019-01-15T01:52:14.990Z,12.90
2019-01-15T01:54:44.927Z,17.27
2019-01-15T01:57:14.813Z,21.23
2019-01-15T01:59:44.670Z,19.67
2019-01-15T02:02:14.673Z,26.00
2019-01-15T02:04:44.473Z,29.13
2019-01-15T02:07:14.393Z,21.77
2019-01-15T02:09:44.294Z,25.03
2019-01-15T02:12:13.753Z,26.73
2019-01-15T02:14:43.507Z,26.00
2019-01-15T02:17:13.226Z,21.00
2019-01-15T02:19:43.093Z,15.37
2019-01-15T02:22:12.748Z,19.40
2019-01-15T02:24:42.972Z,18.90
2019-01-15T02:27:12.683Z,18.80
2019-01-15T02:29:42.160Z,22.23
2019-01-15T02:32:11.925Z,21.73
2019-01-15T02:34:41.784Z,22.17
2019-01-15T02:37:11.495Z,19.80
2019-01-15T02:39:40.940Z,16.17
2019-01-15T02:42:10.798Z,17.40
2019-01-15T02:44:40.642Z,13.30
2019-01-15T02:47:10.449Z,16.20
2019-01-15T02:49:40.478Z,18.37
2019-01-15T02:52:10.297Z,19.67
2019-01-15T02:54:39.975Z,18.93
2019-01-15T02:57:09.698Z,21.77
2019-01-15T02:59:38.676Z,20.00
2019-01-15T03:02:08.368Z,22.77
2019-01-15T03:04:37.880Z,21.27
2019-01-15T03:07:07.498Z,20.53
2019-01-15T03:09:36.686Z,17.80
2019-01-15T03:12:06.128Z,14.50
2019-01-15T03:14:36.194Z,22.47
2019-01-15T03:17:05.893Z,19.03
2019-01-15T03:19:35.732Z,24.07
2019-01-15T03:22:05.475Z,24.63
2019-01-15T03:24:35.145Z,38.70
2019-01-15T03:27:05.236Z,37.17
2019-01-15T03:29:34.840Z,37.40
2019-01-15T03:32:04.820Z,52.40
2019-01-15T03:34:34.639Z,44.80
2019-01-15T03:37:04.315Z,37.63
2019-01-15T03:39:34.297Z,34.50
2019-01-15T03:42:04.090Z,33.77
2019-01-15T03:44:33.872Z,32.63
2019-01-15T03:47:03.674Z,37.87
2019-01-15T03:49:33.411Z,32.97
2019-01-15T03:52:03.197Z,33.60
2019-01-15T03:54:32.740Z,27.57
2019-01-15T03:57:02.627Z,25.10
2019-01-15T03:59:32.365Z,30.07
2019-01-15T04:02:02.298Z,35.03
2019-01-15T04:04:31.994Z,41.83
2019-01-15T04:07:01.943Z,38.77
2019-01-15T04:09:31.583Z,33.33
2019-01-15T04:12:01.598Z,36.80
2019-01-15T04:14:30.752Z,35.27
2019-01-15T04:17:00.791Z,41.30
2019-01-15T04:19:30.438Z,35.90
2019-01-15T04:22:00.292Z,34.53
2019-01-15T04:24:30.009Z,31.33
2019-01-15T04:26:59.770Z,29.40
2019-01-15T04:29:29.928Z,31.13
2019-01-15T04:31:59.991Z,37.23
2019-01-15T04:34:29.746Z,29.10
2019-01-15T04:36:59.241Z,25.23
2019-01-15T04:39:28.824Z,31.43
2019-01-15T04:41:58.626Z,38.97
2019-01-15T04:44:28.557Z,29.80
2019-01-15T04:46:58.475Z,27.77
2019-01-15T04:49:28.255Z,29.57
2019-01-15T04:51:57.822Z,30.40
2019-01-15T04:54:27.912Z,31.23
2019-01-15T04:56:58.124Z,33.47
2019-01-15T04:59:27.628Z,34.33
2019-01-15T05:01:57.660Z,37.53
2019-01-15T05:04:27.169Z,34.33
2019-01-15T05:07:02.847Z,31.67
2019-01-15T05:09:32.638Z,36.63
2019-01-15T05:12:02.503Z,28.17
2019-01-15T05:14:32.399Z,19.23
2019-01-15T05:17:02.174Z,23.33
2019-01-15T05:19:31.554Z,25.97
2019-01-15T05:22:01.465Z,25.07
2019-01-15T05:24:31.300Z,21.57
2019-01-15T05:27:00.924Z,17.70
2019-01-15T05:29:30.636Z,26.67
2019-01-15T05:32:00.615Z,19.10
2019-01-15T05:34:30.413Z,23.00
2019-01-15T05:36:59.885Z,16.93
2019-01-15T05:39:29.609Z,17.93
2019-01-15T05:41:59.357Z,18.23
2019-01-15T05:44:29.230Z,18.57
2019-01-15T05:46:58.753Z,15.27
2019-01-15T05:49:28.481Z,17.20
2019-01-15T05:51:58.266Z,13.80
2019-01-15T05:54:28.076Z,21.50
2019-01-15T05:56:57.850Z,18.13
2019-01-15T05:59:27.474Z,15.77
2019-01-15T06:01:57.301Z,18.60
2019-01-15T06:04:27.022Z,16.90
2019-01-15T06:06:56.519Z,17.13
2019-01-15T06:09:26.265Z,15.17
2019-01-15T06:11:56.058Z,18.10
2019-01-15T06:14:25.650Z,21.00
2019-01-15T06:16:55.097Z,20.30
2019-01-15T06:19:24.870Z,19.13
2019-01-15T06:21:54.681Z,15.13
2019-01-15T06:24:24.502Z,22.90
2019-01-15T06:26:54.199Z,18.83
2019-01-15T06:29:24.085Z,15.97
2019-01-15T06:31:53.399Z,15.83
2019-01-15T06:34:23.107Z,19.30
2019-01-15T06:36:52.921Z,16.60
2019-01-15T06:39:22.355Z,15.37
2019-01-15T06:41:52.079Z,16.43
2019-01-15T06:44:21.969Z,13.20
2019-01-15T06:46:51.782Z,16.60
2019-01-15T06:49:21.302Z,13.23
2019-01-15T06:51:50.802Z,16.73
2019-01-15T06:54:20.644Z,16.77
2019-01-15T06:56:51.992Z,19.37
2019-01-15T06:59:21.885Z,18.80
2019-01-15T07:01:51.498Z,17.50
2019-01-15T07:04:20.992Z,15.90
2019-01-15T07:06:50.771Z,27.13
2019-01-15T07:09:20.639Z,12.90
2019-01-15T07:11:50.124Z,15.27
2019-01-15T07:14:19.752Z,13.37
2019-01-15T07:16:49.191Z,15.13
2019-01-15T07:19:18.534Z,12.73
2019-01-15T07:21:48.291Z,25.93
2019-01-15T07:24:17.935Z,13.13
2019-01-15T07:26:47.354Z,15.63
2019-01-15T07:29:17.399Z,16.27
2019-01-15T07:31:46.905Z,12.53
2019-01-15T07:34:16.725Z,12.73
2019-01-15T07:36:46.654Z,17.57
2019-01-15T07:39:16.401Z,22.83
2019-01-15T07:41:46.109Z,14.13
2019-01-15T07:44:15.577Z,20.10
2019-01-15T07:46:45.185Z,21.27
2019-01-15T07:49:15.436Z,15.40
2019-01-15T07:51:45.487Z,14.40
2019-01-15T07:54:14.786Z,39.63
2019-01-15T07:56:44.413Z,25.23
2019-01-15T07:59:14.250Z,20.20
2019-01-15T08:01:44.617Z,68.00
2019-01-15T08:04:14.056Z,58.03
2019-01-15T08:06:44.077Z,114.70
2019-01-15T08:09:13.376Z,113.60
2019-01-15T08:11:42.883Z,50.17
2019-01-15T08:14:12.471Z,28.93
2019-01-15T08:16:41.852Z,34.43
2019-01-15T08:19:11.041Z,32.83
2019-01-15T08:21:40.639Z,21.83
2019-01-15T08:24:10.591Z,29.57
2019-01-15T08:26:40.110Z,58.20
2019-01-15T08:29:09.402Z,43.10
2019-01-15T08:31:39.007Z,31.87
2019-01-15T08:34:08.017Z,58.70
2019-01-15T08:36:38.155Z,30.97
2019-01-15T08:39:08.768Z,43.27
2019-01-15T08:41:38.692Z,40.50
2019-01-15T08:44:08.382Z,41.73
2019-01-15T08:46:38.318Z,52.17
2019-01-15T08:49:07.668Z,37.20
2019-01-15T08:51:38.322Z,45.13
2019-01-15T08:54:08.328Z,40.03
2019-01-15T08:56:38.126Z,34.03
2019-01-15T08:59:07.832Z,51.73
2019-01-15T09:01:37.547Z,55.07
2019-01-15T09:04:07.080Z,40.77
2019-01-15T09:06:36.762Z,51.43
2019-01-15T09:09:08.123Z,51.13
2019-01-15T09:11:37.918Z,47.70
2019-01-15T09:14:07.624Z,52.90
2019-01-15T09:16:37.485Z,61.13
2019-01-15T09:19:06.480Z,59.27
2019-01-15T09:21:35.651Z,52.97
2019-01-15T09:24:04.597Z,49.70
2019-01-15T09:26:34.512Z,52.03
2019-01-15T09:29:03.686Z,41.43
2019-01-15T09:31:32.792Z,41.33
2019-01-15T09:34:02.256Z,29.53
2019-01-15T09:36:31.958Z,24.70
2019-01-15T09:39:01.490Z,23.67
2019-01-15T09:41:30.673Z,26.57
2019-01-15T09:44:03.405Z,28.47
2019-01-15T09:46:33.645Z,22.37
2019-01-15T09:49:03.067Z,19.50
2019-01-15T09:51:33.008Z,18.73
2019-01-15T09:54:02.515Z,23.87
2019-01-15T09:56:32.238Z,24.10
2019-01-15T09:59:02.252Z,23.33
2019-01-15T10:01:31.927Z,27.10
2019-01-15T10:04:02.213Z,22.23
2019-01-15T10:06:32.151Z,21.43
2019-01-15T10:09:01.191Z,18.27
2019-01-15T10:11:30.275Z,25.07
2019-01-15T10:14:00.356Z,21.47
2019-01-15T10:16:30.049Z,22.07
2019-01-15T10:18:59.198Z,21.40
2019-01-15T10:21:28.700Z,27.90
2019-01-15T10:23:57.951Z,29.37
2019-01-15T10:26:27.704Z,30.87
2019-01-15T10:28:57.277Z,27.27
2019-01-15T10:31:50.955Z,23.20
2019-01-15T10:34:21.804Z,21.30
2019-01-15T10:36:53.396Z,17.67
2019-01-15T10:39:22.912Z,11.10
2019-01-15T10:41:52.883Z,9.83
2019-01-15T10:44:22.888Z,12.10
2019-01-15T10:46:52.714Z,11.77
2019-01-15T10:49:21.877Z,12.50
2019-01-15T10:51:51.390Z,19.43
2019-01-15T10:54:20.849Z,17.33
2019-01-15T10:56:50.183Z,15.47
2019-01-15T10:59:19.888Z,13.20
2019-01-15T11:01:49.376Z,14.07
2019-01-15T11:04:19.344Z,12.17
2019-01-15T11:06:49.218Z,11.63
2019-01-15T11:15:14.822Z,8.23
2019-01-15T11:26:26.124Z,4.80
2019-01-15T11:34:38.994Z,5.10
2019-01-15T11:37:12.963Z,16.00
2019-01-15T11:39:42.538Z,7.53
2019-01-15T13:38:09.347Z,6.53
2019-01-15T13:40:55.497Z,2.73
2019-01-15T13:43:51.699Z,2.50
2019-01-15T13:46:40.547Z,3.33
2019-01-15T13:49:11.838Z,2.40
2019-01-15T13:51:43.306Z,5.97
2019-01-15T13:54:30.670Z,4.00
2019-01-15T13:57:02.184Z,3.73
2019-01-15T13:59:32.986Z,3.57
2019-01-15T14:02:19.451Z,5.37
2019-01-15T14:04:53.149Z,9.63
2019-01-15T14:07:36.728Z,3.63
2019-01-15T14:10:19.362Z,13.27
2019-01-15T14:12:53.806Z,10.63
2019-01-15T14:15:24.738Z,6.90
2019-01-15T14:18:13.677Z,3.10
2019-01-15T14:20:57.134Z,2.60
2019-01-15T14:23:43.509Z,9.63
2019-01-15T14:26:20.985Z,1.60
2019-01-15T14:28:58.704Z,2.60
2019-01-15T14:31:33.781Z,3.30
2019-01-15T14:34:10.481Z,5.40
2019-01-15T14:36:50.678Z,7.23
2019-01-15T14:39:21.594Z,2.60
2019-01-15T14:42:14.327Z,2.93
2019-01-15T14:44:48.016Z,5.53
2019-01-15T14:47:18.740Z,4.03
2019-01-15T14:50:05.612Z,3.17
2019-01-15T14:52:51.816Z,3.50
2019-01-15T14:55:39.578Z,3.10
2019-01-15T14:58:28.539Z,6.27
2019-01-15T15:01:15.993Z,3.40
2019-01-15T15:03:46.631Z,6.97
2019-01-15T15:06:20.968Z,3.97
2019-01-15T15:09:08.012Z,3.43
2019-01-15T15:11:47.766Z,8.83
2019-01-15T15:14:18.763Z,4.37
2019-01-15T15:16:49.465Z,6.47
2019-01-15T15:19:24.383Z,6.30
2019-01-15T15:21:59.114Z,1.77
2019-01-15T15:24:30.021Z,8.13
2019-01-15T15:27:06.839Z,2.97
2019-01-15T15:29:37.553Z,5.10
2019-01-15T15:32:08.204Z,5.37
2019-01-15T15:34:50.895Z,5.83
2019-01-15T15:37:21.575Z,8.23
2019-01-15T15:39:58.889Z,7.70
2019-01-15T15:42:37.103Z,5.37
2019-01-15T15:45:11.719Z,7.13
2019-01-15T15:47:55.974Z,6.80
2019-01-15T15:50:30.198Z,6.43
2019-01-15T15:53:19.652Z,5.23
2019-01-15T15:55:51.788Z,5.97
2019-01-15T15:58:26.809Z,3.40
2019-01-15T16:01:09.736Z,3.73
2019-01-15T16:03:46.963Z,15.90
2019-01-15T16:06:33.961Z,3.63
2019-01-15T16:09:07.592Z,2.23
2019-01-15T16:11:53.981Z,4.83
2019-01-15T16:14:24.858Z,7.10
2019-01-15T16:17:01.035Z,4.30
2019-01-15T16:19:49.962Z,3.80
2019-01-15T16:22:21.544Z,5.80
2019-01-15T16:25:07.894Z,5.93
2019-01-15T16:27:54.875Z,6.23
2019-01-15T16:30:37.645Z,6.40
2019-01-15T16:33:17.303Z,5.40
2019-01-15T16:35:51.190Z,7.00
2019-01-15T16:38:39.051Z,4.13
2019-01-15T16:41:16.011Z,4.67
2019-01-15T16:44:04.941Z,6.47
2019-01-15T16:46:41.757Z,7.33
2019-01-15T16:49:12.937Z,5.03
2019-01-15T16:51:53.498Z,6.20
2019-01-15T16:54:35.307Z,15.50
2019-01-15T16:57:09.547Z,13.97
2019-01-15T16:59:52.463Z,9.40
2019-01-15T17:02:26.117Z,3.53
2019-01-15T17:04:59.810Z,8.43
2019-01-15T17:07:31.297Z,7.83
2019-01-15T17:10:01.998Z,3.00
2019-01-15T17:12:36.162Z,12.07
2019-01-15T17:15:16.837Z,10.27
2019-01-15T17:18:04.006Z,11.73
2019-01-15T17:20:38.714Z,16.90
2019-01-15T17:23:15.314Z,22.33
2019-01-15T17:25:55.205Z,18.37
2019-01-15T17:28:32.215Z,8.77
2019-01-15T17:31:19.215Z,13.60
2019-01-15T17:34:02.304Z,13.80
2019-01-15T17:36:36.451Z,12.70
2019-01-15T17:39:26.865Z,12.60
2019-01-15T17:42:00.162Z,14.43
2019-01-15T17:44:31.061Z,11.50
2019-01-15T17:47:18.103Z,5.90
2019-01-15T17:50:06.173Z,3.97
2019-01-15T17:52:43.804Z,34.90
2019-01-15T17:55:18.964Z,23.50
2019-01-15T17:57:58.700Z,11.20
2019-01-15T18:00:36.195Z,10.60
2019-01-15T18:03:23.261Z,9.00
2019-01-15T18:05:54.363Z,13.53
2019-01-15T18:08:30.969Z,19.00
2019-01-15T18:11:05.289Z,16.27
2019-01-15T18:13:36.081Z,9.53
2019-01-15T18:16:23.071Z,27.60
2019-01-15T18:19:06.140Z,32.37
2019-01-15T18:21:43.190Z,26.40
2019-01-15T18:24:32.540Z,19.80
2019-01-15T18:27:03.418Z,14.23
2019-01-15T18:29:46.731Z,13.00
2019-01-15T18:32:34.507Z,11.53
2019-01-15T18:35:05.504Z,11.10
2019-01-15T18:37:36.074Z,17.63
2019-01-15T18:40:25.964Z,84.20
2019-01-15T18:42:56.707Z,59.77
2019-01-15T18:45:33.252Z,48.97
2019-01-15T18:48:06.673Z,32.93
2019-01-15T18:50:49.452Z,23.83
2019-01-15T18:53:26.003Z,24.57
2019-01-15T18:55:56.926Z,18.83
2019-01-15T18:58:27.847Z,36.10
2019-01-15T19:01:08.142Z,25.23
2019-01-15T19:03:47.874Z,24.63
2019-01-15T19:06:34.833Z,21.50
2019-01-15T19:09:21.632Z,28.43
2019-01-15T19:12:01.923Z,15.63
2019-01-15T19:14:42.084Z,10.37
2019-01-15T19:17:12.832Z,21.03
2019-01-15T19:19:49.601Z,16.53
2019-01-15T19:22:20.486Z,13.43
2019-01-15T19:24:54.073Z,15.70
2019-01-15T19:27:33.933Z,48.30
2019-01-15T19:30:07.634Z,10.60
2019-01-15T19:32:54.932Z,13.20
2019-01-15T19:35:28.772Z,8.80
2019-01-15T19:38:14.831Z,8.47
2019-01-15T19:41:02.122Z,11.80
2019-01-15T19:43:51.712Z,15.33
2019-01-15T19:46:28.594Z,17.23
2019-01-15T19:49:18.133Z,10.47
2019-01-15T19:52:00.874Z,6.63
2019-01-15T19:54:34.312Z,29.10
2019-01-15T19:57:08.722Z,26.50
2019-01-15T19:59:55.652Z,14.67
2019-01-15T20:02:32.651Z,15.70
2019-01-15T20:05:15.483Z,17.73
2019-01-15T20:07:46.244Z,26.20
2019-01-15T20:10:32.086Z,9.47
2019-01-15T20:13:02.964Z,14.87
2019-01-15T20:15:36.602Z,23.57
2019-01-15T20:18:10.326Z,17.90
2019-01-15T20:20:50.045Z,15.17
